Time;durP1;ratioP1;P1;durP2;ratioP2;P2;SDS_P1;SDS_P2;PMS_P1;PMS_P2;Temp;Humidity;BMP_temperature;BMP_pressure;BME280_temperature;BME280_humidity;BME280_pressure;Samples;Min_cycle;Max_cycle;Signal;HPM_P1;HPM_P2
2022/04/10 00:02:23;;;;;;;;;;;4.20;99.90;;;;;;6061541;23;19922;-86
2022/04/10 00:04:50;;;;;;;;;;;4.20;99.90;;;;;;6064202;23;19936;-84
2022/04/10 00:07:16;;;;;;;;;;;4.30;99.90;;;;;;6063551;23;19929;-83
2022/04/10 00:09:43;;;;;;;;;;;4.10;99.90;;;;;;6064071;23;19988;-86
2022/04/10 00:12:10;;;;;;;;;;;4.20;99.90;;;;;;6061215;23;19921;-84
2022/04/10 00:14:37;;;;;;;;;;;4.10;99.90;;;;;;6063003;23;19921;-83
2022/04/10 00:17:04;;;;;;;;;;;4.20;99.90;;;;;;6064464;23;19921;-83
2022/04/10 00:19:32;;;;;;;;;;;4.20;99.90;;;;;;6161996;23;19922;-83
2022/04/10 00:21:59;;;;;;;;;;;4.10;99.90;;;;;;6162295;23;20305;-83
2022/04/10 00:24:26;;;;;;;;;;;4.10;99.90;;;;;;6162081;23;20392;-85
2022/04/10 00:26:53;;;;;;;;;;;4.20;99.90;;;;;;6064279;23;20004;-84
2022/04/10 00:29:20;;;;;;;;;;;4.10;99.90;;;;;;6162031;23;19921;-86
2022/04/10 00:31:47;;;;;;;;;;;4.10;99.90;;;;;;6060757;23;20420;-83
2022/04/10 00:34:14;;;;;;;;;;;4.10;99.90;;;;;;6164625;23;19953;-83
2022/04/10 00:36:42;;;;;;;;;;;4.10;99.90;;;;;;6060382;23;20322;-87
2022/04/10 00:39:10;;;;;;;;;;;4.00;99.90;;;;;;6163895;23;19948;-87
2022/04/10 00:41:37;;;;;;;;;;;4.00;99.90;;;;;;6062751;23;19972;-83
2022/04/10 00:44:05;;;;;;;;;;;4.00;99.90;;;;;;6185674;23;20658;-85
2022/04/10 00:46:32;;;;;;;;;;;4.00;99.90;;;;;;6187548;23;19938;-85
2022/04/10 00:48:59;;;;;;;;;;;4.00;99.90;;;;;;6062155;23;19921;-83
2022/04/10 00:51:41;;;;;;;;;;;4.00;99.90;;;;;;6061426;23;20410;-80
2022/04/10 00:54:11;;;;;;;;;;;4.00;99.90;;;;;;6160532;23;19922;-83
2022/04/10 00:56:38;;;;;;;;;;;3.90;99.90;;;;;;6061663;23;19922;-83
2022/04/10 00:59:06;;;;;;;;;;;4.00;99.90;;;;;;6063053;23;19945;-83
2022/04/10 01:01:33;;;;;;;;;;;3.90;99.90;;;;;;6060905;23;19921;-83
2022/04/10 01:04:00;;;;;;;;;;;3.90;99.90;;;;;;6162786;23;19929;-83
2022/04/10 01:06:28;;;;;;;;;;;3.90;99.90;;;;;;6163438;23;20243;-84
2022/04/10 01:08:55;;;;;;;;;;;3.90;99.90;;;;;;6162405;23;19949;-84
2022/04/10 01:11:24;;;;;;;;;;;3.90;99.90;;;;;;6161425;23;19921;-83
2022/04/10 01:13:52;;;;;;;;;;;3.80;99.90;;;;;;6161790;23;19925;-82
2022/04/10 01:16:19;;;;;;;;;;;3.80;99.90;;;;;;6163064;23;19922;-84
2022/04/10 01:18:47;;;;;;;;;;;3.90;99.90;;;;;;6162114;23;19949;-83
2022/04/10 01:21:16;;;;;;;;;;;3.90;99.90;;;;;;6160765;23;20493;-85
2022/04/10 01:23:45;;;;;;;;;;;3.80;99.90;;;;;;6187012;23;19922;-87
2022/04/10 01:26:12;;;;;;;;;;;3.80;99.90;;;;;;6162845;23;19922;-83
2022/04/10 01:28:55;;;;;;;;;;;3.80;99.90;;;;;;6159262;23;20004;-83
2022/04/10 01:31:23;;;;;;;;;;;3.80;99.90;;;;;;6160973;23;19929;-83
2022/04/10 01:33:51;;;;;;;;;;;3.80;99.90;;;;;;6161510;23;19928;-84
2022/04/10 01:36:18;;;;;;;;;;;3.70;99.90;;;;;;6161809;23;19968;-85
2022/04/10 01:38:46;;;;;;;;;;;3.70;99.90;;;;;;6161772;23;20378;-83
2022/04/10 01:41:13;;;;;;;;;;;3.70;99.90;;;;;;6162102;23;19925;-83
2022/04/10 01:43:45;;;;;;;;;;;3.70;99.90;;;;;;6163490;23;19960;-83
2022/04/10 01:46:12;;;;;;;;;;;3.70;99.90;;;;;;6161232;23;20365;-86
2022/04/10 01:48:39;;;;;;;;;;;3.70;99.90;;;;;;6159562;23;19921;-83
2022/04/10 01:51:06;;;;;;;;;;;3.70;99.90;;;;;;6160840;23;19945;-86
2022/04/10 01:53:33;;;;;;;;;;;3.60;99.90;;;;;;6062077;23;19975;-83
2022/04/10 01:56:01;;;;;;;;;;;3.60;99.90;;;;;;6163088;23;19926;-84
2022/04/10 01:58:29;;;;;;;;;;;3.60;99.90;;;;;;6160092;23;19922;-86
2022/04/10 02:00:56;;;;;;;;;;;3.60;99.90;;;;;;6163767;23;19922;-88
2022/04/10 02:03:23;;;;;;;;;;;3.60;99.90;;;;;;6163371;23;19925;-84
2022/04/10 02:05:50;;;;;;;;;;;3.60;99.90;;;;;;6163024;23;20366;-83
2022/04/10 02:08:17;;;;;;;;;;;3.50;99.90;;;;;;6163380;23;20405;-84
2022/04/10 02:10:45;;;;;;;;;;;3.60;99.90;;;;;;6188277;23;20004;-86
2022/04/10 02:13:13;;;;;;;;;;;3.50;99.90;;;;;;6164130;23;19928;-82
2022/04/10 02:15:40;;;;;;;;;;;3.60;99.90;;;;;;6163375;23;19951;-83
2022/04/10 02:18:07;;;;;;;;;;;3.50;99.90;;;;;;6189204;23;19972;-83
2022/04/10 02:20:34;;;;;;;;;;;3.50;99.90;;;;;;6188916;23;19944;-83
2022/04/10 02:23:01;;;;;;;;;;;3.50;99.90;;;;;;6187573;23;19921;-83
2022/04/10 02:25:28;;;;;;;;;;;3.50;99.90;;;;;;6161505;23;19925;-82
2022/04/10 02:27:55;;;;;;;;;;;3.50;99.90;;;;;;6187685;23;19922;-84
2022/04/10 02:30:23;;;;;;;;;;;3.50;99.90;;;;;;6061312;23;19932;-84
2022/04/10 02:32:51;;;;;;;;;;;3.40;99.90;;;;;;6163766;23;20004;-86
2022/04/10 02:35:18;;;;;;;;;;;3.40;99.90;;;;;;6164262;23;20360;-83
2022/04/10 02:37:46;;;;;;;;;;;3.40;99.90;;;;;;6163076;23;19922;-84
2022/04/10 02:40:15;;;;;;;;;;;3.40;99.90;;;;;;6161653;23;19965;-85
2022/04/10 02:42:43;;;;;;;;;;;3.40;99.90;;;;;;6164275;23;20346;-83
2022/04/10 02:45:12;;;;;;;;;;;3.40;99.90;;;;;;6162796;23;19935;-86
2022/04/10 02:47:42;;;;;;;;;;;3.40;99.90;;;;;;6162377;23;19921;-82
2022/04/10 02:50:10;;;;;;;;;;;3.40;99.90;;;;;;6164052;23;19933;-84
2022/04/10 02:52:37;;;;;;;;;;;3.40;99.90;;;;;;6164783;23;20358;-85
2022/04/10 02:55:04;;;;;;;;;;;3.40;99.90;;;;;;6162740;23;20369;-83
2022/04/10 02:57:32;;;;;;;;;;;3.30;99.90;;;;;;6186576;23;20354;-83
2022/04/10 02:59:59;;;;;;;;;;;3.40;99.90;;;;;;6163401;23;19922;-83
2022/04/10 03:02:29;;;;;;;;;;;3.30;99.90;;;;;;6162268;23;19921;-83
2022/04/10 03:04:57;;;;;;;;;;;3.40;99.90;;;;;;6189006;23;19925;-86
2022/04/10 03:07:24;;;;;;;;;;;3.30;99.90;;;;;;6161792;23;20244;-85
2022/04/10 03:09:51;;;;;;;;;;;3.30;99.90;;;;;;6060994;23;20011;-83
2022/04/10 03:12:18;;;;;;;;;;;3.30;99.90;;;;;;6163116;23;19952;-87
2022/04/10 03:14:45;;;;;;;;;;;3.30;99.90;;;;;;6162017;23;19926;-83
2022/04/10 03:17:13;;;;;;;;;;;3.30;99.90;;;;;;6162027;23;20266;-84
2022/04/10 03:19:40;;;;;;;;;;;3.30;99.90;;;;;;6163355;23;20386;-83
2022/04/10 03:22:09;;;;;;;;;;;3.30;99.90;;;;;;6063356;23;19929;-83
2022/04/10 03:24:36;;;;;;;;;;;3.30;99.90;;;;;;6162718;23;20038;-84
2022/04/10 03:27:03;;;;;;;;;;;3.20;99.90;;;;;;6160497;23;19933;-83
2022/04/10 03:29:31;;;;;;;;;;;3.30;99.90;;;;;;6164435;23;19930;-87
2022/04/10 03:31:58;;;;;;;;;;;3.20;99.90;;;;;;6161892;23;19926;-83
2022/04/10 03:34:25;;;;;;;;;;;3.30;99.90;;;;;;6162951;23;19921;-82
2022/04/10 03:36:52;;;;;;;;;;;3.20;99.90;;;;;;6161171;23;19970;-88
2022/04/10 03:39:21;;;;;;;;;;;3.20;99.90;;;;;;6161628;23;19949;-83
2022/04/10 03:41:48;;;;;;;;;;;3.20;99.90;;;;;;6188601;23;19948;-83
2022/04/10 03:44:15;;;;;;;;;;;3.20;99.90;;;;;;6158803;23;20354;-88
2022/04/10 03:46:42;;;;;;;;;;;3.20;99.90;;;;;;6063112;23;19959;-82
2022/04/10 03:49:09;;;;;;;;;;;3.20;99.90;;;;;;6163334;23;19922;-89
2022/04/10 03:51:36;;;;;;;;;;;3.20;99.90;;;;;;6189157;23;19972;-83
2022/04/10 03:54:03;;;;;;;;;;;3.20;99.90;;;;;;6061598;23;19933;-86
2022/04/10 03:56:34;;;;;;;;;;;3.20;99.90;;;;;;6161841;23;19922;-87
2022/04/10 03:59:01;;;;;;;;;;;3.20;99.90;;;;;;6184166;23;20337;-83
2022/04/10 04:01:30;;;;;;;;;;;3.20;99.90;;;;;;6160644;23;19929;-82
2022/04/10 04:03:58;;;;;;;;;;;3.20;99.90;;;;;;6165195;23;19944;-86
2022/04/10 04:06:28;;;;;;;;;;;3.20;99.90;;;;;;6167259;23;20525;-86
2022/04/10 04:08:55;;;;;;;;;;;3.20;99.90;;;;;;6191227;23;20266;-86
2022/04/10 04:11:22;;;;;;;;;;;3.20;99.90;;;;;;6166253;23;19925;-85
2022/04/10 04:13:51;;;;;;;;;;;3.20;99.90;;;;;;6165468;23;20179;-85
2022/04/10 04:16:18;;;;;;;;;;;3.20;99.90;;;;;;6066850;23;19948;-83
2022/04/10 04:18:46;;;;;;;;;;;3.20;99.90;;;;;;6189840;23;20420;-86
2022/04/10 04:21:13;;;;;;;;;;;3.20;99.90;;;;;;6065679;23;19929;-84
2022/04/10 04:23:44;;;;;;;;;;;3.20;99.90;;;;;;6064601;23;19921;-83
2022/04/10 04:26:12;;;;;;;;;;;3.10;99.90;;;;;;6164884;23;19968;-86
2022/04/10 04:28:41;;;;;;;;;;;3.20;99.90;;;;;;6165903;23;19937;-83
2022/04/10 04:31:11;;;;;;;;;;;3.20;99.90;;;;;;6161556;23;19929;-85
2022/04/10 04:33:38;;;;;;;;;;;3.10;99.90;;;;;;6160476;23;19926;-83
2022/04/10 04:36:05;;;;;;;;;;;3.20;99.90;;;;;;6163786;23;19945;-83
2022/04/10 04:38:33;;;;;;;;;;;3.10;99.90;;;;;;6164519;23;20352;-83
2022/04/10 04:41:02;;;;;;;;;;;3.10;99.90;;;;;;6162236;23;19922;-82
2022/04/10 04:43:29;;;;;;;;;;;3.10;99.90;;;;;;6163621;23;19980;-82
2022/04/10 04:45:56;;;;;;;;;;;3.10;99.90;;;;;;6162754;23;19922;-85
2022/04/10 04:48:25;;;;;;;;;;;3.10;99.90;;;;;;6162463;23;19929;-82
2022/04/10 04:50:52;;;;;;;;;;;3.10;99.90;;;;;;6063438;23;20378;-83
2022/04/10 04:53:24;;;;;;;;;;;3.10;99.90;;;;;;6162551;23;20273;-84
2022/04/10 04:55:51;;;;;;;;;;;3.00;99.90;;;;;;6164588;23;19937;-83
2022/04/10 04:58:24;;;;;;;;;;;3.10;99.90;;;;;;6065212;23;20287;-85
2022/04/10 05:00:51;;;;;;;;;;;3.00;99.90;;;;;;6162442;23;19968;-83
2022/04/10 05:03:19;;;;;;;;;;;3.00;99.90;;;;;;6164818;23;20009;-83
2022/04/10 05:05:51;;;;;;;;;;;3.00;99.90;;;;;;6164620;23;19922;-85
2022/04/10 05:08:24;;;;;;;;;;;3.00;99.90;;;;;;6188481;23;19955;-83
2022/04/10 05:10:53;;;;;;;;;;;3.00;99.90;;;;;;6161657;23;19928;-85
2022/04/10 05:13:21;;;;;;;;;;;3.00;99.90;;;;;;6162740;23;20498;-82
2022/04/10 05:15:48;;;;;;;;;;;2.90;99.90;;;;;;6157146;23;20274;-86
2022/04/10 05:18:17;;;;;;;;;;;3.00;99.90;;;;;;6163281;23;20243;-86
2022/04/10 05:20:46;;;;;;;;;;;3.00;99.90;;;;;;6161389;23;19932;-82
2022/04/10 05:23:19;;;;;;;;;;;2.90;99.90;;;;;;6162679;23;19921;-84
2022/04/10 05:25:54;;;;;;;;;;;2.90;99.90;;;;;;6161752;23;20354;-83
2022/04/10 05:28:22;;;;;;;;;;;2.90;99.90;;;;;;6169886;23;19974;-85
2022/04/10 05:30:49;;;;;;;;;;;2.90;99.90;;;;;;6164662;23;19926;-82
2022/04/10 05:33:21;;;;;;;;;;;2.90;99.90;;;;;;6162549;23;20354;-83
2022/04/10 05:35:48;;;;;;;;;;;2.90;99.90;;;;;;6162555;23;19987;-85
2022/04/10 05:38:16;;;;;;;;;;;2.90;99.90;;;;;;6160886;23;19921;-82
2022/04/10 05:40:52;;;;;;;;;;;2.90;99.90;;;;;;6160689;23;20045;-84
2022/04/10 05:43:23;;;;;;;;;;;2.90;99.90;;;;;;6163960;23;19926;-86
2022/04/10 05:45:53;;;;;;;;;;;2.90;99.90;;;;;;6164142;23;19925;-85
2022/04/10 05:48:21;;;;;;;;;;;2.90;99.90;;;;;;6160700;23;19975;-84
2022/04/10 05:50:49;;;;;;;;;;;2.90;99.90;;;;;;6059993;23;19981;-84
2022/04/10 05:53:16;;;;;;;;;;;2.90;99.90;;;;;;6161796;23;19921;-85
2022/04/10 05:55:46;;;;;;;;;;;2.90;99.90;;;;;;6162661;23;20135;-83
2022/04/10 05:58:18;;;;;;;;;;;2.90;99.90;;;;;;6162067;23;19961;-85
2022/04/10 06:00:46;;;;;;;;;;;2.90;99.90;;;;;;6160124;23;19925;-85
2022/04/10 06:03:18;;;;;;;;;;;2.90;99.90;;;;;;6163168;23;19922;-84
2022/04/10 06:05:49;;;;;;;;;;;2.80;99.90;;;;;;6163054;23;19930;-81
2022/04/10 06:08:25;;;;;;;;;;;2.80;99.90;;;;;;6060533;23;19972;-86
2022/04/10 06:10:53;;;;;;;;;;;2.80;99.90;;;;;;6161457;23;19928;-82
2022/04/10 06:13:21;;;;;;;;;;;2.90;99.90;;;;;;6161631;23;19922;-81
2022/04/10 06:15:55;;;;;;;;;;;2.90;99.90;;;;;;6163216;23;20429;-82
2022/04/10 06:18:24;;;;;;;;;;;2.80;99.90;;;;;;6160846;23;19926;-81
2022/04/10 08:34:54;;;;;;;;;;;3.20;99.90;;;;;;6148971;22;19928;-82
2022/04/10 08:37:27;;;;;;;;;;;3.30;99.90;;;;;;6146146;22;19943;-81
2022/04/10 08:39:54;;;;;;;;;;;3.20;99.90;;;;;;6177976;22;19909;-82
2022/04/10 08:42:21;;;;;;;;;;;3.30;99.90;;;;;;6172791;22;19923;-81
2022/04/10 12:42:39;;;;;;;;;;;6.00;99.90;;;;;;6139616;23;19927;-82
2022/04/10 12:45:08;;;;;;;;;;;6.00;99.90;;;;;;6153510;23;20296;-82
2022/04/10 12:47:42;;;;;;;;;;;6.10;99.90;;;;;;6153401;23;19952;-83
2022/04/10 12:50:10;;;;;;;;;;;6.00;99.90;;;;;;6151911;23;19944;-81
2022/04/10 12:52:39;;;;;;;;;;;6.00;99.90;;;;;;6154702;23;19920;-83
2022/04/10 12:55:15;;;;;;;;;;;6.00;99.90;;;;;;6153050;23;19927;-82
2022/04/10 12:57:48;;;;;;;;;;;6.00;99.90;;;;;;6153884;23;19955;-82
2022/04/10 13:00:23;;;;;;;;;;;6.00;99.90;;;;;;6152833;23;19925;-82
2022/04/10 13:02:50;;;;;;;;;;;6.10;99.90;;;;;;6154862;23;19944;-83
2022/04/10 13:05:18;;;;;;;;;;;6.10;99.90;;;;;;6154848;23;19987;-82
2022/04/10 13:07:54;;;;;;;;;;;6.10;99.90;;;;;;6153224;22;19944;-82
2022/04/10 13:10:21;;;;;;;;;;;6.10;99.90;;;;;;6154407;23;19921;-83
2022/04/10 13:12:50;;;;;;;;;;;6.10;99.90;;;;;;6151261;23;19931;-82
2022/04/10 13:15:29;;;;;;;;;;;6.10;99.90;;;;;;6154990;23;19921;-82
2022/04/10 13:17:57;;;;;;;;;;;6.20;99.90;;;;;;6152790;23;19921;-82
2022/04/10 13:20:24;;;;;;;;;;;6.20;99.90;;;;;;6154254;23;19921;-83
2022/04/10 13:22:51;;;;;;;;;;;6.20;99.90;;;;;;6152846;22;19920;-82
2022/04/10 13:25:18;;;;;;;;;;;6.20;99.90;;;;;;6152747;23;20380;-82
2022/04/10 13:27:45;;;;;;;;;;;6.30;99.90;;;;;;6151897;23;19952;-80
2022/04/10 13:30:14;;;;;;;;;;;6.30;99.90;;;;;;6151661;23;19928;-81
2022/04/10 13:32:41;;;;;;;;;;;6.40;99.90;;;;;;6152936;23;19955;-83
2022/04/10 13:35:09;;;;;;;;;;;6.40;99.90;;;;;;6153840;23;20318;-82
2022/04/10 13:37:37;;;;;;;;;;;6.50;99.90;;;;;;6152673;23;20704;-83
2022/04/10 13:40:05;;;;;;;;;;;6.60;99.90;;;;;;6150786;23;19931;-83
2022/04/10 13:42:32;;;;;;;;;;;6.60;99.90;;;;;;6150418;23;19921;-81
2022/04/10 13:45:00;;;;;;;;;;;6.70;99.90;;;;;;6152355;23;19931;-83
2022/04/10 13:47:29;;;;;;;;;;;6.70;99.90;;;;;;6151225;23;19931;-82
2022/04/10 13:49:56;;;;;;;;;;;6.80;99.90;;;;;;6150967;23;20000;-83
2022/04/10 13:52:23;;;;;;;;;;;6.80;99.90;;;;;;6150984;23;19929;-82
2022/04/10 13:54:52;;;;;;;;;;;6.90;99.90;;;;;;6153652;23;19927;-82
2022/04/10 13:57:19;;;;;;;;;;;6.90;99.90;;;;;;6153129;23;19920;-81
2022/04/10 13:59:46;;;;;;;;;;;6.90;99.90;;;;;;6153855;23;19970;-78
2022/04/10 14:02:14;;;;;;;;;;;7.10;99.90;;;;;;6154417;23;19942;-81
2022/04/10 14:04:42;;;;;;;;;;;7.10;99.90;;;;;;6153240;23;20416;-81
2022/04/10 14:07:09;;;;;;;;;;;7.10;99.90;;;;;;6153943;23;19920;-81
2022/04/10 14:09:36;;;;;;;;;;;7.20;99.90;;;;;;6156288;23;19921;-83
2022/04/10 14:12:03;;;;;;;;;;;7.20;99.90;;;;;;6151095;23;19930;-78
2022/04/10 14:14:31;;;;;;;;;;;7.20;99.90;;;;;;6153889;23;19924;-80
2022/04/10 14:16:59;;;;;;;;;;;7.20;99.90;;;;;;6154485;23;19970;-82
2022/04/10 14:19:26;;;;;;;;;;;7.20;99.90;;;;;;6151806;23;19927;-79
2022/04/10 14:21:54;;;;;;;;;;;7.20;99.90;;;;;;6153602;23;19942;-78
2022/04/10 14:24:21;;;;;;;;;;;7.20;99.90;;;;;;6152387;23;19921;-80
2022/04/10 14:26:49;;;;;;;;;;;7.30;99.90;;;;;;6153186;23;20458;-79
2022/04/10 14:29:16;;;;;;;;;;;7.30;99.90;;;;;;6156042;23;19921;-80
2022/04/10 14:31:46;;;;;;;;;;;7.30;99.90;;;;;;6154203;23;19931;-80
2022/04/10 14:34:13;;;;;;;;;;;7.30;99.90;;;;;;6154797;23;20004;-82
2022/04/10 14:36:40;;;;;;;;;;;7.30;99.90;;;;;;6155190;23;20245;-82
2022/04/10 14:39:09;;;;;;;;;;;7.40;99.90;;;;;;6150273;23;19927;-81
2022/04/10 14:41:36;;;;;;;;;;;7.30;99.90;;;;;;6152434;23;19925;-82
2022/04/10 14:44:03;;;;;;;;;;;7.30;99.90;;;;;;6148724;23;19924;-79
2022/04/10 14:46:30;;;;;;;;;;;7.40;99.90;;;;;;6151906;23;19932;-82
2022/04/10 14:48:57;;;;;;;;;;;7.40;99.90;;;;;;6153320;23;19920;-83
2022/04/10 14:51:24;;;;;;;;;;;7.40;99.90;;;;;;6154594;22;19950;-81
2022/04/10 14:53:51;;;;;;;;;;;7.40;99.90;;;;;;6151798;23;19928;-82
2022/04/10 14:56:19;;;;;;;;;;;7.40;99.90;;;;;;6152289;23;19984;-82
2022/04/10 14:58:46;;;;;;;;;;;7.40;99.90;;;;;;6147603;23;20404;-80
2022/04/10 15:01:13;;;;;;;;;;;7.50;99.90;;;;;;6151720;23;20008;-81
2022/04/10 15:03:40;;;;;;;;;;;7.50;99.90;;;;;;6151333;23;19924;-82
2022/04/10 15:06:07;;;;;;;;;;;7.50;99.90;;;;;;6151466;23;19970;-80
2022/04/10 15:08:34;;;;;;;;;;;7.50;99.90;;;;;;6151509;23;19927;-82
2022/04/10 15:11:01;;;;;;;;;;;7.50;99.90;;;;;;6152525;23;20345;-81
2022/04/10 15:13:32;;;;;;;;;;;7.50;99.90;;;;;;6152537;23;19948;-82
2022/04/10 15:15:58;;;;;;;;;;;7.60;99.90;;;;;;6151628;23;19943;-82
2022/04/10 15:18:25;;;;;;;;;;;7.70;99.90;;;;;;6153059;23;19924;-81
2022/04/10 15:20:52;;;;;;;;;;;7.70;99.90;;;;;;6152612;23;19921;-80
2022/04/10 15:23:19;;;;;;;;;;;7.70;99.90;;;;;;6150621;23;19928;-80
2022/04/10 15:25:46;;;;;;;;;;;7.80;99.90;;;;;;6148025;23;20003;-80
2022/04/10 15:28:13;;;;;;;;;;;7.80;99.90;;;;;;6151300;22;19927;-82
2022/04/10 15:30:42;;;;;;;;;;;7.80;99.90;;;;;;6153149;23;19924;-82
2022/04/10 15:33:09;;;;;;;;;;;7.80;99.90;;;;;;6149128;23;19995;-81
2022/04/10 15:35:36;;;;;;;;;;;7.90;99.90;;;;;;6152831;23;19924;-82
2022/04/10 15:38:04;;;;;;;;;;;7.80;99.90;;;;;;6152065;23;19946;-81
2022/04/10 15:40:31;;;;;;;;;;;7.90;99.90;;;;;;6148230;23;20000;-82
2022/04/10 15:42:58;;;;;;;;;;;7.90;99.90;;;;;;6152191;23;19921;-82
2022/04/10 15:45:26;;;;;;;;;;;7.90;99.90;;;;;;6151161;22;20392;-80
2022/04/10 15:47:55;;;;;;;;;;;7.90;99.90;;;;;;6150521;23;19921;-82
2022/04/10 15:50:22;;;;;;;;;;;8.00;99.90;;;;;;6150066;23;19920;-81
2022/04/10 15:52:49;;;;;;;;;;;8.00;99.80;;;;;;6149081;23;20010;-83
2022/04/10 15:55:17;;;;;;;;;;;8.00;99.20;;;;;;6151550;23;19920;-81
2022/04/10 15:57:45;;;;;;;;;;;8.00;99.80;;;;;;6149800;23;20234;-82
2022/04/10 16:00:14;;;;;;;;;;;8.00;98.90;;;;;;6150105;23;19921;-81
2022/04/10 16:02:44;;;;;;;;;;;8.00;99.20;;;;;;6151210;23;19924;-83
2022/04/10 16:05:13;;;;;;;;;;;8.00;99.20;;;;;;6150642;23;19936;-79
2022/04/10 16:07:40;;;;;;;;;;;8.10;99.70;;;;;;6151506;23;20002;-82
2022/04/10 16:10:07;;;;;;;;;;;8.10;99.60;;;;;;6152350;23;19931;-82
2022/04/10 16:12:34;;;;;;;;;;;8.10;99.50;;;;;;6148341;23;20353;-82
2022/04/10 16:15:02;;;;;;;;;;;8.10;99.50;;;;;;6150589;23;19927;-82
2022/04/10 16:17:28;;;;;;;;;;;8.10;99.30;;;;;;6149292;23;20383;-81
2022/04/10 16:19:55;;;;;;;;;;;8.10;99.60;;;;;;6151235;23;19924;-81
2022/04/10 16:22:24;;;;;;;;;;;8.10;99.90;;;;;;6153878;23;19974;-80
2022/04/10 16:24:51;;;;;;;;;;;8.20;99.30;;;;;;6151628;23;19924;-81
2022/04/10 16:30:08;;;;;;;;;;;8.20;99.90;;;;;;6152189;23;19932;-80
2022/04/10 16:32:35;;;;;;;;;;;8.20;99.90;;;;;;6153088;23;19924;-81
2022/04/10 16:35:02;;;;;;;;;;;8.20;99.90;;;;;;6153514;23;19927;-81
2022/04/10 16:37:30;;;;;;;;;;;8.30;99.90;;;;;;6151657;23;19990;-80
2022/04/10 16:39:58;;;;;;;;;;;8.30;99.90;;;;;;6152594;23;19927;-80
2022/04/10 16:42:24;;;;;;;;;;;8.30;99.90;;;;;;6147549;23;19955;-79
2022/04/10 16:44:51;;;;;;;;;;;8.30;99.90;;;;;;6151117;23;19924;-79
2022/04/10 16:47:21;;;;;;;;;;;8.30;99.90;;;;;;6150761;23;19920;-80
2022/04/10 16:49:48;;;;;;;;;;;8.40;99.90;;;;;;6149299;23;19920;-81
2022/04/10 16:52:15;;;;;;;;;;;8.40;99.90;;;;;;6150328;23;20105;-80
2022/04/10 16:54:50;;;;;;;;;;;8.40;99.90;;;;;;6158639;23;20002;-81
2022/04/10 16:57:17;;;;;;;;;;;8.40;99.90;;;;;;6153137;23;19951;-79
2022/04/10 16:59:45;;;;;;;;;;;8.40;99.90;;;;;;6152410;23;19946;-79
2022/04/10 17:02:13;;;;;;;;;;;8.40;99.90;;;;;;6152614;22;19970;-78
2022/04/10 17:04:40;;;;;;;;;;;8.40;99.90;;;;;;6150287;23;19924;-79
2022/04/10 17:07:07;;;;;;;;;;;8.50;99.90;;;;;;6153651;23;19928;-80
2022/04/10 17:09:34;;;;;;;;;;;8.50;99.90;;;;;;6151702;23;19924;-80
2022/04/10 17:12:03;;;;;;;;;;;8.50;99.90;;;;;;6149476;23;19921;-79
2022/04/10 17:14:30;;;;;;;;;;;8.50;99.90;;;;;;6149642;23;19927;-81
2022/04/10 17:16:57;;;;;;;;;;;8.40;99.90;;;;;;6154290;23;19920;-80
2022/04/10 17:19:23;;;;;;;;;;;8.50;99.90;;;;;;6149694;23;19943;-80
2022/04/10 17:21:50;;;;;;;;;;;8.50;99.90;;;;;;6151798;23;19943;-81
2022/04/10 17:24:17;;;;;;;;;;;8.50;99.90;;;;;;6150345;23;20349;-80
2022/04/10 17:26:44;;;;;;;;;;;8.50;99.90;;;;;;6150147;23;19935;-80
2022/04/10 17:29:12;;;;;;;;;;;8.50;99.90;;;;;;6152019;23;20013;-80
2022/04/10 17:31:40;;;;;;;;;;;8.50;99.90;;;;;;6152585;23;19974;-80
2022/04/10 17:34:07;;;;;;;;;;;8.40;99.90;;;;;;6151231;23;19921;-80
2022/04/10 17:36:34;;;;;;;;;;;8.40;99.90;;;;;;6153740;23;19932;-81
2022/04/10 17:39:01;;;;;;;;;;;8.40;99.90;;;;;;6156797;23;20352;-81
2022/04/10 17:41:29;;;;;;;;;;;8.40;99.90;;;;;;6152455;23;19965;-81
2022/04/10 17:43:56;;;;;;;;;;;8.40;99.90;;;;;;6152037;23;19931;-80
2022/04/10 17:46:24;;;;;;;;;;;8.40;99.90;;;;;;6156135;23;19925;-80
2022/04/10 17:48:51;;;;;;;;;;;8.40;99.90;;;;;;6152631;23;20016;-80
2022/04/10 17:51:18;;;;;;;;;;;8.40;99.90;;;;;;6150542;23;19921;-81
2022/04/10 17:53:47;;;;;;;;;;;8.40;99.90;;;;;;6150591;23;19927;-80
2022/04/10 17:56:14;;;;;;;;;;;8.40;99.90;;;;;;6152494;23;19920;-80
2022/04/10 17:58:42;;;;;;;;;;;8.40;99.90;;;;;;6150540;23;19943;-81
2022/04/10 18:01:09;;;;;;;;;;;8.30;99.90;;;;;;6151669;23;19928;-81
2022/04/10 18:03:38;;;;;;;;;;;8.30;99.90;;;;;;6152647;23;19931;-80
2022/04/10 18:06:05;;;;;;;;;;;8.30;99.90;;;;;;6150393;23;19951;-80
2022/04/10 18:08:32;;;;;;;;;;;8.30;99.90;;;;;;6152179;23;19924;-81
2022/04/10 18:11:00;;;;;;;;;;;8.30;99.90;;;;;;6150648;23;19932;-80
2022/04/10 18:13:27;;;;;;;;;;;8.20;99.90;;;;;;6150006;23;19921;-84
2022/04/10 18:15:55;;;;;;;;;;;8.30;99.90;;;;;;6151396;23;19995;-81
2022/04/10 18:18:22;;;;;;;;;;;8.20;99.90;;;;;;6150479;23;20388;-82
2022/04/10 18:20:51;;;;;;;;;;;8.20;99.90;;;;;;6149762;23;19928;-81
2022/04/10 18:23:18;;;;;;;;;;;8.20;99.90;;;;;;6147032;23;19999;-80
2022/04/10 18:25:46;;;;;;;;;;;8.20;99.90;;;;;;6144697;23;19925;-81
2022/04/10 18:28:12;;;;;;;;;;;8.20;99.90;;;;;;6148643;23;19970;-82
2022/04/10 18:30:40;;;;;;;;;;;8.10;99.90;;;;;;6149228;23;20420;-80
2022/04/10 18:33:09;;;;;;;;;;;8.10;99.90;;;;;;6149165;23;20265;-80
2022/04/10 18:35:37;;;;;;;;;;;8.00;99.90;;;;;;6146065;23;19925;-81
2022/04/10 18:38:05;;;;;;;;;;;8.00;99.90;;;;;;6147108;23;20268;-80
2022/04/10 18:40:33;;;;;;;;;;;8.00;99.90;;;;;;6147776;23;19948;-81
2022/04/10 18:43:00;;;;;;;;;;;8.00;99.90;;;;;;6148085;23;19970;-80
2022/04/10 18:45:29;;;;;;;;;;;8.00;99.90;;;;;;6145465;23;19921;-79
2022/04/10 18:47:57;;;;;;;;;;;8.00;99.90;;;;;;6143833;23;19935;-80
2022/04/10 18:50:24;;;;;;;;;;;7.90;99.90;;;;;;6143295;22;19944;-81
2022/04/10 18:52:52;;;;;;;;;;;7.90;99.90;;;;;;6150255;23;20375;-82
2022/04/10 18:55:20;;;;;;;;;;;7.90;99.90;;;;;;6150069;23;19971;-81
2022/04/10 18:57:48;;;;;;;;;;;7.90;99.90;;;;;;6149544;23;19950;-81
2022/04/10 19:00:15;;;;;;;;;;;7.90;99.90;;;;;;6149404;23;19928;-81
2022/04/10 19:02:43;;;;;;;;;;;7.80;99.90;;;;;;6150297;23;20353;-81
2022/04/10 19:05:11;;;;;;;;;;;7.80;99.90;;;;;;6151396;23;20424;-81
2022/04/10 19:07:38;;;;;;;;;;;7.80;99.90;;;;;;6151138;22;19920;-81
2022/04/10 19:10:06;;;;;;;;;;;7.80;99.90;;;;;;6148375;23;20011;-81
2022/04/10 19:12:35;;;;;;;;;;;7.80;99.90;;;;;;6149455;22;19924;-81
2022/04/10 19:15:03;;;;;;;;;;;7.80;99.90;;;;;;6149976;23;19966;-81
2022/04/10 19:17:30;;;;;;;;;;;7.70;99.90;;;;;;6148091;22;20349;-81
2022/04/10 19:19:57;;;;;;;;;;;7.70;99.90;;;;;;6149885;23;19921;-81
2022/04/10 19:22:24;;;;;;;;;;;7.70;99.90;;;;;;6146751;23;19921;-81
2022/04/10 19:24:51;;;;;;;;;;;7.70;99.90;;;;;;6147981;23;20338;-81
2022/04/10 19:27:23;;;;;;;;;;;7.70;99.90;;;;;;6150532;23;19947;-81
2022/04/10 19:29:52;;;;;;;;;;;7.60;99.90;;;;;;6148125;23;19970;-81
2022/04/10 19:32:20;;;;;;;;;;;7.60;99.90;;;;;;6150353;23;19921;-81
2022/04/10 19:34:48;;;;;;;;;;;7.60;99.90;;;;;;6150211;23;19948;-81
2022/04/10 19:37:15;;;;;;;;;;;7.60;99.90;;;;;;6147967;23;20031;-81
2022/04/10 19:39:42;;;;;;;;;;;7.50;99.90;;;;;;6150574;22;20303;-81
2022/04/10 19:42:10;;;;;;;;;;;7.50;99.90;;;;;;6148051;23;19952;-81
2022/04/10 19:44:37;;;;;;;;;;;7.50;99.90;;;;;;6150646;23;19925;-81
2022/04/10 19:47:06;;;;;;;;;;;7.50;99.90;;;;;;6153686;23;19924;-81
2022/04/10 19:49:35;;;;;;;;;;;7.50;99.90;;;;;;6149460;23;19921;-81
2022/04/10 19:52:04;;;;;;;;;;;7.50;99.90;;;;;;6149472;23;19928;-81
2022/04/10 19:54:31;;;;;;;;;;;7.40;99.90;;;;;;6149644;23;20353;-81
2022/04/10 19:56:59;;;;;;;;;;;7.40;99.90;;;;;;6152435;22;19924;-81
2022/04/10 19:59:35;;;;;;;;;;;7.40;99.90;;;;;;6152315;22;19970;-81
2022/04/10 20:02:24;;;;;;;;;;;7.40;99.90;;;;;;6151189;23;19924;-82
2022/04/10 20:04:52;;;;;;;;;;;7.40;99.90;;;;;;6151557;23;20023;-81
2022/04/10 20:07:22;;;;;;;;;;;7.30;99.90;;;;;;6150053;23;19928;-81
2022/04/10 20:09:51;;;;;;;;;;;7.30;99.90;;;;;;6149998;23;19920;-81
2022/04/10 20:12:18;;;;;;;;;;;7.30;99.90;;;;;;6149148;23;19928;-81
2022/04/10 20:14:45;;;;;;;;;;;7.20;99.90;;;;;;6149847;23;20372;-81
2022/04/10 20:17:14;;;;;;;;;;;7.20;99.90;;;;;;6149277;23;20246;-81
2022/04/10 20:19:42;;;;;;;;;;;7.20;99.90;;;;;;6149762;23;19974;-81
2022/04/10 20:22:09;;;;;;;;;;;7.20;99.90;;;;;;6150173;23;20341;-81
2022/04/10 20:24:36;;;;;;;;;;;7.10;99.90;;;;;;6150803;22;19975;-81
2022/04/10 20:27:04;;;;;;;;;;;7.10;99.90;;;;;;6149335;23;20306;-81
2022/04/10 20:29:31;;;;;;;;;;;7.10;99.90;;;;;;6149815;23;19921;-82
2022/04/10 20:31:59;;;;;;;;;;;7.10;99.90;;;;;;6151850;23;19928;-81
2022/04/10 20:34:27;;;;;;;;;;;7.00;99.90;;;;;;6173955;23;19924;-81
2022/04/10 20:36:55;;;;;;;;;;;7.00;99.90;;;;;;6175403;22;19922;-82
2022/04/10 20:39:25;;;;;;;;;;;7.00;99.90;;;;;;6161319;23;19921;-81
2022/04/10 20:41:53;;;;;;;;;;;7.00;99.90;;;;;;6152725;23;19921;-82
2022/04/10 20:44:20;;;;;;;;;;;7.00;99.90;;;;;;6149332;22;19921;-81
2022/04/10 20:46:50;;;;;;;;;;;6.90;99.90;;;;;;6150005;23;19921;-81
2022/04/10 20:49:18;;;;;;;;;;;6.90;99.90;;;;;;6149736;23;19948;-81
2022/04/10 20:51:50;;;;;;;;;;;6.90;99.90;;;;;;6150029;23;19924;-81